createdAt,value
2022-10-19T00:00:43.276Z,9.53
2022-10-19T00:03:16.417Z,7.05
2022-10-19T00:05:47.581Z,9.83
2022-10-19T00:08:18.721Z,6.35
2022-10-19T00:10:50.296Z,10.72
2022-10-19T00:13:21.530Z,7.70
2022-10-19T00:15:52.853Z,7.70
2022-10-19T00:18:24.465Z,8.03
2022-10-19T00:21:03.649Z,7.67
2022-10-19T00:23:35.185Z,9.73
2022-10-19T00:26:06.981Z,9.28
2022-10-19T00:28:38.685Z,10.10
2022-10-19T00:31:13.517Z,30.68
2022-10-19T00:33:46.898Z,10.75
2022-10-19T00:36:20.605Z,10.35
2022-10-19T00:38:53.009Z,7.90
2022-10-19T00:41:26.355Z,9.55
2022-10-19T00:44:03.648Z,7.97
2022-10-19T00:46:38.072Z,6.67
2022-10-19T00:49:12.330Z,14.60
2022-10-19T00:51:46.169Z,8.68
2022-10-19T00:54:18.546Z,7.60
2022-10-19T00:56:54.002Z,9.45
2022-10-19T00:59:27.097Z,10.23
2022-10-19T01:01:58.999Z,9.95
2022-10-19T01:04:31.630Z,8.80
2022-10-19T01:07:04.485Z,11.35
2022-10-19T01:09:36.261Z,9.18
2022-10-19T01:12:12.816Z,11.03
2022-10-19T01:14:50.232Z,7.30
2022-10-19T01:17:25.462Z,11.15
2022-10-19T01:20:23.691Z,12.25
2022-10-19T01:23:03.217Z,10.82
2022-10-19T01:25:41.696Z,11.55
2022-10-19T01:28:22.687Z,8.13
2022-10-19T01:30:57.118Z,6.80
2022-10-19T01:33:35.020Z,7.37
2022-10-19T01:36:12.501Z,9.58
2022-10-19T01:38:47.184Z,13.85
2022-10-19T01:41:21.446Z,9.13
2022-10-19T01:43:56.389Z,8.83
2022-10-19T01:46:31.002Z,12.25
2022-10-19T01:49:05.122Z,9.90
2022-10-19T01:51:39.566Z,9.58
2022-10-19T01:54:14.506Z,7.97
2022-10-19T01:56:48.222Z,10.05
2022-10-19T01:59:22.222Z,13.50
2022-10-19T02:01:55.206Z,9.23
2022-10-19T02:04:27.623Z,9.18
2022-10-19T02:06:59.752Z,8.43
2022-10-19T02:09:31.544Z,7.65
2022-10-19T02:12:05.816Z,9.48
2022-10-19T02:14:40.401Z,8.13
2022-10-19T02:17:14.697Z,6.40
2022-10-19T02:19:46.324Z,14.07
2022-10-19T02:22:17.642Z,12.28
2022-10-19T02:24:48.915Z,9.75
2022-10-19T02:27:20.220Z,8.83
2022-10-19T02:29:52.006Z,11.53
2022-10-19T02:32:23.645Z,6.70
2022-10-19T02:34:55.561Z,10.58
2022-10-19T02:37:27.075Z,7.30
2022-10-19T02:39:58.626Z,6.83
2022-10-19T02:42:33.942Z,9.05
2022-10-19T02:45:09.440Z,8.33
2022-10-19T02:47:45.009Z,11.97
2022-10-19T02:50:17.617Z,14.35
2022-10-19T02:52:48.752Z,7.80
2022-10-19T02:55:20.203Z,8.30
2022-10-19T02:57:51.306Z,7.25
2022-10-19T03:00:22.747Z,9.10
2022-10-19T03:02:53.883Z,10.60
2022-10-19T03:05:25.121Z,9.78
2022-10-19T03:07:56.584Z,7.15
2022-10-19T03:10:28.890Z,9.20
2022-10-19T03:13:00.471Z,8.63
2022-10-19T03:15:31.877Z,9.48
2022-10-19T03:18:03.111Z,9.25
2022-10-19T03:20:34.517Z,7.10
2022-10-19T03:23:05.755Z,5.90
2022-10-19T03:25:36.906Z,10.10
2022-10-19T03:28:08.206Z,6.58
2022-10-19T03:30:39.588Z,8.23
2022-10-19T03:33:10.893Z,10.72
2022-10-19T03:35:42.225Z,6.90
2022-10-19T03:38:13.672Z,12.95
2022-10-19T03:40:45.370Z,11.63
2022-10-19T03:43:16.697Z,8.05
2022-10-19T03:45:48.720Z,7.97
2022-10-19T03:48:19.936Z,11.93
2022-10-19T03:50:53.348Z,10.82
2022-10-19T03:53:24.575Z,8.38
2022-10-19T03:56:01.777Z,9.20
2022-10-19T03:58:35.679Z,9.25
2022-10-19T04:01:11.116Z,10.30
2022-10-19T04:03:42.400Z,9.75
2022-10-19T04:06:18.344Z,8.20
2022-10-19T04:08:51.521Z,7.67
2022-10-19T04:11:25.841Z,9.53
2022-10-19T04:13:59.188Z,8.30
2022-10-19T04:16:32.074Z,24.20
2022-10-19T04:19:03.732Z,12.65
2022-10-19T04:21:37.150Z,9.35
2022-10-19T04:24:11.005Z,8.50
2022-10-19T04:26:44.953Z,8.63
2022-10-19T04:29:17.453Z,15.98
2022-10-19T04:31:51.652Z,12.53
2022-10-19T04:34:23.101Z,10.08
2022-10-19T04:36:57.645Z,8.68
2022-10-19T04:39:29.148Z,9.10
2022-10-19T04:42:01.570Z,11.00
2022-10-19T04:44:32.878Z,9.75
2022-10-19T04:47:04.153Z,7.12
2022-10-19T04:49:35.512Z,14.65
2022-10-19T04:52:06.947Z,11.97
2022-10-19T04:54:38.341Z,8.28
2022-10-19T04:57:09.614Z,10.72
2022-10-19T04:59:41.001Z,10.63
2022-10-19T05:02:12.996Z,10.53
2022-10-19T05:04:45.191Z,10.88
2022-10-19T05:07:16.958Z,6.47
2022-10-19T05:09:48.451Z,9.05
2022-10-19T05:12:19.781Z,9.40
2022-10-19T05:14:51.283Z,12.37
2022-10-19T05:17:22.424Z,12.43
2022-10-19T05:19:53.722Z,8.30
2022-10-19T05:22:25.257Z,11.73
2022-10-19T05:24:58.164Z,7.70
2022-10-19T05:27:29.960Z,18.62
2022-10-19T05:30:01.309Z,10.50
2022-10-19T05:32:32.689Z,16.30
2022-10-19T05:35:04.472Z,13.38
2022-10-19T05:37:36.165Z,13.88
2022-10-19T05:40:12.470Z,8.93
2022-10-19T05:42:43.773Z,13.48
2022-10-19T05:45:15.093Z,11.80
2022-10-19T05:47:46.355Z,19.70
2022-10-19T05:50:17.904Z,10.48
2022-10-19T05:52:49.366Z,10.85
2022-10-19T05:55:20.700Z,11.03
2022-10-19T05:57:52.349Z,12.58
2022-10-19T06:00:23.510Z,14.05
2022-10-19T06:02:58.917Z,12.80
2022-10-19T06:05:27.672Z,13.22
2022-10-19T06:07:58.949Z,23.67
2022-10-19T06:10:30.272Z,22.50
2022-10-19T06:13:01.619Z,16.05
2022-10-19T06:15:36.484Z,13.40
2022-10-19T06:18:08.932Z,17.35
2022-10-19T06:20:42.425Z,12.58
2022-10-19T06:23:13.644Z,20.23
2022-10-19T06:25:45.444Z,25.75
2022-10-19T06:28:16.760Z,25.70
2022-10-19T06:30:48.174Z,52.17
2022-10-19T06:33:19.515Z,46.55
2022-10-19T06:35:50.899Z,27.93
2022-10-19T06:38:22.293Z,29.15
2022-10-19T06:40:53.610Z,27.40
2022-10-19T06:43:24.811Z,18.67
2022-10-19T06:45:55.745Z,19.92
2022-10-19T06:48:27.134Z,22.93
2022-10-19T06:50:59.158Z,21.62
2022-10-19T06:53:31.321Z,21.65
2022-10-19T06:56:04.153Z,16.73
2022-10-19T06:58:37.802Z,21.25
2022-10-19T07:01:10.646Z,21.30
2022-10-19T07:03:43.193Z,31.17
2022-10-19T07:06:15.257Z,22.17
2022-10-19T07:08:47.053Z,25.72
2022-10-19T07:11:20.259Z,19.27
2022-10-19T07:13:53.117Z,18.70
2022-10-19T07:16:24.416Z,26.02
2022-10-19T07:18:56.544Z,21.68
2022-10-19T07:21:27.892Z,15.58
2022-10-19T07:23:59.175Z,14.93
2022-10-19T07:26:31.271Z,14.85
2022-10-19T07:29:03.250Z,21.05
2022-10-19T07:31:34.829Z,13.95
2022-10-19T07:34:07.175Z,13.08
2022-10-19T07:36:40.100Z,15.55
2022-10-19T07:39:13.084Z,9.35
2022-10-19T07:41:44.957Z,11.10
2022-10-19T07:44:17.186Z,11.70
2022-10-19T07:46:48.444Z,8.88
2022-10-19T07:49:20.773Z,15.28
2022-10-19T07:51:53.953Z,12.40
2022-10-19T07:54:27.298Z,21.17
2022-10-19T07:56:58.666Z,11.45
2022-10-19T07:59:30.229Z,18.77
2022-10-19T08:02:03.100Z,15.68
2022-10-19T08:07:09.622Z,13.45
2022-10-19T08:09:52.864Z,17.02
2022-10-19T08:12:15.327Z,20.15
2022-10-19T08:14:48.176Z,14.73
2022-10-19T08:17:19.646Z,16.32
2022-10-19T08:19:50.770Z,18.15
2022-10-19T08:22:22.277Z,18.20
2022-10-19T08:24:53.505Z,16.75
2022-10-19T08:27:25.282Z,16.37
2022-10-19T08:29:56.544Z,17.65
2022-10-19T08:32:27.813Z,21.30
2022-10-19T08:34:59.085Z,17.20
2022-10-19T08:37:44.124Z,15.93
2022-10-19T08:40:03.351Z,19.27
2022-10-19T08:42:40.842Z,19.75
2022-10-19T08:48:32.924Z,14.38
2022-10-19T08:51:08.077Z,20.70
2022-10-19T08:53:43.787Z,18.65
2022-10-19T08:56:49.344Z,16.45
2022-10-19T08:59:09.792Z,15.38
2022-10-19T09:01:47.000Z,19.15
2022-10-19T09:04:23.557Z,15.65
2022-10-19T09:07:19.873Z,16.17
2022-10-19T09:09:54.595Z,15.20
2022-10-19T09:12:38.297Z,15.35
2022-10-19T09:15:14.639Z,14.73
2022-10-19T09:17:47.403Z,13.50
2022-10-19T09:20:30.177Z,11.88
2022-10-19T09:23:09.816Z,18.15
2022-10-19T09:25:59.720Z,12.20
2022-10-19T09:28:40.888Z,11.90
2022-10-19T09:31:16.669Z,10.87
2022-10-19T09:33:52.084Z,11.63
2022-10-19T09:36:33.237Z,9.98
2022-10-19T09:38:58.484Z,19.60
2022-10-19T09:41:30.776Z,19.23
2022-10-19T09:44:02.437Z,12.05
2022-10-19T09:46:42.552Z,14.75
2022-10-19T09:49:13.741Z,9.83
2022-10-19T09:51:51.767Z,10.60
2022-10-19T09:54:29.365Z,11.33
2022-10-19T09:57:00.779Z,10.10
2022-10-19T09:59:35.773Z,12.30
2022-10-19T10:02:16.871Z,12.75
2022-10-19T10:04:50.602Z,12.93
2022-10-19T10:07:23.403Z,10.68
2022-10-19T10:09:55.031Z,12.53
2022-10-19T10:12:26.455Z,12.43
2022-10-19T10:14:57.877Z,9.28
2022-10-19T10:17:31.919Z,12.95
2022-10-19T10:20:21.541Z,13.25
2022-10-19T10:22:59.320Z,12.78
2022-10-19T10:25:32.856Z,11.53
2022-10-19T10:28:07.182Z,12.07
2022-10-19T10:30:39.015Z,11.35
2022-10-19T10:33:27.019Z,12.82
2022-10-19T10:35:53.114Z,13.62
2022-10-19T10:38:27.786Z,14.90
2022-10-19T10:41:02.764Z,13.65
2022-10-19T10:43:36.481Z,9.85
2022-10-19T10:46:10.485Z,12.47
2022-10-19T10:48:45.194Z,12.58
2022-10-19T10:51:24.573Z,14.98
2022-10-19T10:54:10.986Z,13.25
2022-10-19T10:56:47.340Z,15.13
2022-10-19T10:59:21.744Z,13.08
2022-10-19T11:01:57.522Z,13.45
2022-10-19T11:04:31.839Z,14.03
2022-10-19T11:07:05.299Z,14.53
2022-10-19T11:09:39.626Z,13.60
2022-10-19T11:12:14.518Z,10.82
2022-10-19T11:14:50.874Z,21.70
2022-10-19T11:17:26.179Z,18.37
2022-10-19T11:19:57.548Z,14.60
2022-10-19T11:22:31.904Z,20.40
2022-10-19T11:25:16.327Z,25.17
2022-10-19T11:27:51.063Z,11.57
2022-10-19T11:30:24.007Z,16.77
2022-10-19T11:33:01.819Z,13.48
2022-10-19T11:35:47.538Z,17.57
2022-10-19T11:38:31.108Z,11.55
2022-10-19T11:41:23.606Z,20.43
2022-10-19T11:43:44.671Z,16.07
2022-10-19T11:46:19.038Z,12.05
2022-10-19T11:48:59.674Z,15.70
2022-10-19T11:51:36.289Z,14.65
2022-10-19T11:54:27.475Z,14.38
2022-10-19T11:57:04.770Z,14.70
2022-10-19T11:59:41.380Z,12.70
2022-10-19T12:02:23.243Z,13.90
2022-10-19T12:04:58.372Z,12.05
2022-10-19T12:07:38.187Z,15.72
2022-10-19T12:10:21.679Z,14.80
2022-10-19T12:12:55.145Z,17.57
2022-10-19T12:15:30.573Z,33.08
2022-10-19T12:18:05.886Z,20.65
2022-10-19T12:20:40.840Z,14.50
2022-10-19T12:23:26.530Z,14.90
2022-10-19T12:26:01.836Z,17.67
2022-10-19T12:28:36.371Z,16.40
2022-10-19T12:31:10.618Z,19.95
2022-10-19T12:33:47.418Z,18.42
2022-10-19T12:36:25.329Z,14.38
2022-10-19T12:39:02.695Z,22.90
2022-10-19T12:41:37.657Z,16.97
2022-10-19T12:44:38.023Z,16.07
2022-10-19T12:47:15.636Z,16.57
2022-10-19T12:49:49.647Z,16.42
2022-10-19T12:52:42.988Z,13.98
2022-10-19T12:55:33.677Z,14.73
2022-10-19T12:58:07.622Z,18.50
2022-10-19T13:00:39.691Z,14.98
2022-10-19T13:03:16.805Z,17.42
2022-10-19T13:06:00.104Z,15.65
2022-10-19T13:08:35.457Z,13.85
2022-10-19T13:11:10.409Z,18.82
2022-10-19T13:13:58.516Z,15.78
2022-10-19T13:17:01.764Z,16.27
2022-10-19T13:19:33.566Z,15.00
2022-10-19T13:22:32.991Z,15.28
2022-10-19T13:25:38.968Z,16.02
2022-10-19T13:28:37.784Z,22.22
2022-10-19T13:31:24.741Z,12.58
2022-10-19T13:33:57.689Z,14.93
2022-10-19T13:36:29.711Z,17.05
2022-10-19T13:39:17.742Z,16.15
2022-10-19T13:41:54.642Z,13.45
2022-10-19T13:44:36.584Z,14.58
2022-10-19T13:47:32.983Z,14.00
2022-10-19T13:50:19.964Z,14.23
2022-10-19T13:53:22.149Z,12.70
2022-10-19T13:56:20.073Z,17.60
2022-10-19T13:59:15.059Z,15.83
2022-10-19T14:01:56.385Z,15.53
2022-10-19T14:04:33.758Z,14.18
2022-10-19T14:07:09.211Z,16.32
2022-10-19T14:09:57.812Z,14.28
2022-10-19T14:12:31.240Z,18.02
2022-10-19T14:15:04.125Z,14.15
2022-10-19T14:17:38.633Z,16.95
2022-10-19T14:20:27.252Z,19.23
2022-10-19T14:22:58.858Z,18.65
2022-10-19T14:25:32.731Z,12.75
2022-10-19T14:28:07.330Z,16.62
2022-10-19T14:30:38.658Z,16.20
2022-10-19T14:33:14.025Z,29.23
2022-10-19T14:35:48.462Z,15.58
2022-10-19T14:38:23.044Z,15.98
2022-10-19T14:40:56.027Z,17.37
2022-10-19T14:43:29.372Z,15.00
2022-10-19T14:46:14.192Z,18.48
2022-10-19T14:48:48.502Z,14.30
2022-10-19T14:51:30.041Z,19.73
2022-10-19T14:54:04.935Z,13.72
2022-10-19T14:56:39.287Z,20.72
2022-10-19T14:59:18.723Z,14.50
2022-10-19T15:01:52.604Z,15.00
2022-10-19T15:04:27.001Z,17.02
2022-10-19T15:06:59.393Z,15.35
2022-10-19T15:09:37.408Z,18.20
2022-10-19T15:12:09.511Z,13.88
2022-10-19T15:14:41.282Z,19.07
2022-10-19T15:17:26.218Z,18.23
2022-10-19T15:20:00.913Z,18.42
2022-10-19T15:22:41.155Z,17.00
2022-10-19T15:25:31.070Z,15.05
2022-10-19T15:28:23.980Z,13.43
2022-10-19T15:31:03.978Z,22.55
2022-10-19T15:33:40.239Z,19.30
2022-10-19T15:36:15.682Z,15.65
2022-10-19T15:38:48.492Z,13.72
2022-10-19T15:41:23.409Z,20.32
2022-10-19T15:43:58.935Z,13.03
2022-10-19T15:46:34.349Z,17.30
2022-10-19T15:49:44.270Z,18.77
2022-10-19T15:52:17.707Z,20.40
2022-10-19T15:54:50.207Z,14.25
2022-10-19T15:57:28.569Z,17.70
2022-10-19T16:00:02.138Z,15.32
2022-10-19T16:02:33.394Z,17.10
2022-10-19T16:07:39.341Z,31.45
2022-10-19T16:10:16.345Z,23.10
2022-10-19T16:12:47.609Z,12.43
2022-10-19T16:15:22.665Z,15.23
2022-10-19T16:17:55.420Z,17.37
2022-10-19T16:20:29.097Z,20.90
2022-10-19T16:23:00.704Z,18.73
2022-10-19T16:25:31.929Z,24.23
2022-10-19T16:28:03.266Z,35.45
2022-10-19T16:30:34.603Z,43.28
2022-10-19T16:33:05.903Z,46.15
2022-10-19T16:35:38.753Z,43.25
2022-10-19T16:38:10.199Z,39.95
2022-10-19T16:40:41.609Z,50.48
2022-10-19T16:43:12.949Z,29.80
2022-10-19T16:45:45.254Z,25.05
2022-10-19T16:48:18.930Z,25.37
2022-10-19T16:50:55.381Z,28.65
2022-10-19T16:53:27.300Z,27.37
2022-10-19T16:56:01.875Z,30.88
2022-10-19T16:58:33.150Z,94.22
2022-10-19T17:01:09.165Z,192.77
2022-10-19T17:03:40.962Z,173.72
2022-10-19T17:06:12.977Z,147.82
2022-10-19T17:09:23.275Z,161.10
2022-10-19T17:11:20.008Z,116.82
2022-10-19T17:13:53.469Z,62.35
2022-10-19T17:16:27.193Z,38.13
2022-10-19T17:19:00.243Z,26.30
2022-10-19T17:21:33.905Z,24.15
2022-10-19T17:24:06.244Z,18.48
2022-10-19T17:26:39.644Z,24.98
2022-10-19T17:29:12.254Z,28.80
2022-10-19T17:31:44.310Z,28.17
2022-10-19T17:34:15.729Z,27.70
2022-10-19T17:36:48.125Z,36.00
2022-10-19T17:39:25.628Z,22.58
2022-10-19T17:41:55.929Z,20.10
2022-10-19T17:44:28.968Z,25.43
2022-10-19T17:47:01.704Z,23.75
2022-10-19T17:49:33.193Z,32.15
2022-10-19T17:52:04.434Z,23.35
2022-10-19T17:54:43.597Z,25.05
2022-10-19T17:57:08.590Z,21.87
2022-10-19T17:59:52.037Z,22.52
2022-10-19T18:02:12.687Z,24.40
2022-10-19T18:04:43.988Z,22.20
2022-10-19T18:07:15.245Z,29.42
2022-10-19T18:09:46.775Z,26.27
2022-10-19T18:12:18.102Z,20.37
2022-10-19T18:14:49.286Z,26.77
2022-10-19T18:17:24.046Z,22.90
2022-10-19T18:19:53.552Z,26.45
2022-10-19T18:22:24.799Z,27.75
2022-10-19T18:24:56.018Z,27.60
2022-10-19T18:27:27.561Z,26.07
2022-10-19T18:29:58.860Z,28.67
2022-10-19T18:32:31.887Z,21.57
2022-10-19T18:35:03.431Z,30.15
2022-10-19T18:37:34.589Z,22.27
2022-10-19T18:40:06.538Z,28.35
2022-10-19T18:42:37.915Z,36.15
2022-10-19T18:45:11.607Z,26.20
2022-10-19T18:47:42.979Z,39.38
2022-10-19T18:52:47.235Z,24.47
2022-10-19T18:55:18.681Z,30.57
2022-10-19T18:57:50.032Z,30.02
2022-10-19T19:00:21.772Z,24.07
2022-10-19T19:02:57.047Z,29.35
2022-10-19T19:05:29.395Z,34.30
2022-10-19T19:08:00.710Z,26.48
2022-10-19T19:10:31.914Z,21.40
2022-10-19T19:13:03.200Z,25.30
2022-10-19T19:15:34.556Z,23.25
2022-10-19T19:18:05.874Z,21.37
2022-10-19T19:20:38.714Z,25.17
2022-10-19T19:23:10.046Z,19.92
2022-10-19T19:25:42.466Z,21.25
2022-10-19T19:28:14.141Z,21.20
2022-10-19T19:30:46.564Z,19.35
2022-10-19T19:33:17.674Z,22.75
2022-10-19T19:35:52.188Z,18.30
2022-10-19T19:38:23.827Z,26.80
2022-10-19T19:40:55.066Z,24.90
2022-10-19T19:43:26.874Z,24.12
2022-10-19T19:46:03.116Z,25.15
2022-10-19T19:48:33.104Z,23.25
2022-10-19T19:51:04.530Z,21.20
2022-10-19T19:53:35.994Z,22.58
2022-10-19T19:56:09.426Z,24.57
2022-10-19T19:58:42.165Z,25.55
2022-10-19T20:01:15.938Z,22.62
2022-10-19T20:03:48.447Z,27.17
2022-10-19T20:06:24.991Z,27.90
2022-10-19T20:08:54.754Z,25.02
2022-10-19T20:11:28.022Z,29.57
2022-10-19T20:13:59.675Z,22.62
2022-10-19T20:16:33.269Z,26.82
2022-10-19T20:19:07.864Z,26.50
2022-10-19T20:21:39.932Z,25.20
2022-10-19T20:24:13.125Z,25.10
2022-10-19T20:26:47.265Z,21.62
2022-10-19T20:29:18.691Z,22.67
2022-10-19T20:31:50.435Z,23.15
2022-10-19T20:34:24.052Z,21.77
2022-10-19T20:36:55.320Z,23.07
2022-10-19T20:39:27.207Z,22.93
2022-10-19T20:42:05.751Z,19.45
2022-10-19T20:44:37.622Z,27.90
2022-10-19T20:47:09.256Z,27.00
2022-10-19T20:49:40.779Z,24.23
2022-10-19T20:52:12.253Z,27.87
2022-10-19T20:54:43.671Z,28.50
2022-10-19T20:57:14.768Z,30.32
2022-10-19T20:59:46.004Z,23.85
2022-10-19T21:02:17.315Z,25.65
2022-10-19T21:04:48.603Z,24.12
2022-10-19T21:07:19.993Z,25.85
2022-10-19T21:09:51.374Z,27.17
2022-10-19T21:12:22.712Z,23.57
2022-10-19T21:14:54.053Z,21.00
2022-10-19T21:17:25.514Z,24.67
2022-10-19T21:19:57.379Z,31.35
2022-10-19T21:22:28.964Z,20.32
2022-10-19T21:25:00.227Z,22.05
2022-10-19T21:27:31.803Z,23.77
2022-10-19T21:30:03.019Z,20.27
2022-10-19T21:32:34.984Z,24.40
2022-10-19T21:35:07.650Z,22.62
2022-10-19T21:37:38.961Z,20.50
2022-10-19T21:40:12.161Z,20.27
2022-10-19T21:42:45.022Z,20.37
2022-10-19T21:45:29.994Z,18.87
2022-10-19T21:47:49.593Z,25.23
2022-10-19T21:50:20.915Z,19.70
2022-10-19T21:52:52.138Z,22.20
2022-10-19T21:55:25.217Z,20.27
2022-10-19T21:57:56.404Z,21.48
2022-10-19T22:00:27.968Z,22.27
2022-10-19T22:02:59.212Z,21.17
2022-10-19T22:05:33.368Z,24.12
2022-10-19T22:08:04.851Z,22.22
2022-10-19T22:10:37.666Z,23.67
2022-10-19T22:13:09.677Z,21.50
2022-10-19T22:15:43.210Z,20.15
2022-10-19T22:18:14.612Z,24.12
2022-10-19T22:20:46.109Z,20.85
2022-10-19T22:23:17.421Z,23.70
2022-10-19T22:25:48.897Z,22.67
2022-10-19T22:28:20.164Z,23.70
2022-10-19T22:30:55.679Z,23.10
2022-10-19T22:33:27.440Z,25.35
2022-10-19T22:36:00.364Z,19.20
2022-10-19T22:38:31.926Z,23.22
2022-10-19T22:41:56.775Z,31.50
2022-10-19T22:44:28.159Z,29.92
2022-10-19T22:47:00.255Z,25.65
2022-10-19T22:49:32.865Z,23.35
2022-10-19T22:52:04.202Z,27.20
2022-10-19T22:54:35.564Z,24.90
2022-10-19T22:57:08.017Z,25.12
2022-10-19T22:59:39.479Z,27.62
2022-10-19T23:02:10.855Z,30.12
2022-10-19T23:04:42.220Z,30.80
2022-10-19T23:07:13.573Z,26.15
2022-10-19T23:12:15.352Z,22.62
2022-10-19T23:14:46.961Z,27.80
2022-10-19T23:17:18.358Z,29.80
2022-10-19T23:19:49.759Z,30.50
2022-10-19T23:22:21.594Z,23.52
2022-10-19T23:24:53.307Z,23.55
2022-10-19T23:27:24.802Z,25.30
2022-10-19T23:29:56.174Z,29.18
2022-10-19T23:32:27.507Z,28.17
2022-10-19T23:34:59.007Z,23.75
2022-10-19T23:37:30.380Z,21.82
2022-10-19T23:40:01.819Z,23.47
2022-10-19T23:42:33.210Z,24.55
2022-10-19T23:45:04.874Z,28.65
2022-10-19T23:47:36.536Z,22.45
2022-10-19T23:50:09.516Z,23.42
2022-10-19T23:52:40.862Z,24.12
2022-10-19T23:55:12.328Z,22.20
2022-10-19T23:57:43.671Z,22.85
